createdAt,value
2022-12-05T00:01:40.809Z,22.50
2022-12-05T00:04:12.130Z,22.50
2022-12-05T00:06:42.013Z,22.40
2022-12-05T00:09:14.250Z,22.40
2022-12-05T00:11:44.321Z,22.40
2022-12-05T00:14:12.654Z,22.30
2022-12-05T00:16:43.072Z,22.20
2022-12-05T00:19:14.497Z,22.20
2022-12-05T00:21:44.801Z,22.20
2022-12-05T00:24:15.832Z,22.10
2022-12-05T00:26:43.799Z,22.10
2022-12-05T00:29:10.996Z,22.00
2022-12-05T00:31:38.145Z,22.00
2022-12-05T00:34:05.146Z,21.90
2022-12-05T00:36:34.222Z,21.90
2022-12-05T00:39:06.389Z,21.90
2022-12-05T00:41:33.567Z,21.80
2022-12-05T00:44:02.900Z,21.80
2022-12-05T00:46:32.718Z,21.70
2022-12-05T00:49:02.548Z,21.70
2022-12-05T00:51:36.969Z,21.60
2022-12-05T00:54:09.605Z,21.60
2022-12-05T00:56:36.967Z,21.50
2022-12-05T00:59:05.108Z,21.50
2022-12-05T01:01:41.528Z,21.50
2022-12-05T01:04:22.252Z,21.40
2022-12-05T01:06:54.188Z,21.40
2022-12-05T01:09:22.082Z,21.30
2022-12-05T01:11:52.428Z,21.30
2022-12-05T01:14:24.582Z,21.20
2022-12-05T01:16:54.578Z,21.20
2022-12-05T01:19:31.766Z,21.20
2022-12-05T01:21:59.895Z,21.20
2022-12-05T01:24:30.928Z,21.10
2022-12-05T01:26:58.292Z,21.10
2022-12-05T01:29:26.074Z,21.10
2022-12-05T01:31:55.816Z,21.00
2022-12-05T01:34:23.378Z,21.00
2022-12-05T01:36:50.288Z,21.00
2022-12-05T01:39:17.408Z,21.00
2022-12-05T01:41:48.399Z,21.00
2022-12-05T01:44:15.281Z,20.90
2022-12-05T01:46:52.392Z,20.90
2022-12-05T01:49:30.588Z,20.90
2022-12-05T01:52:10.826Z,20.90
2022-12-05T01:54:39.203Z,20.90
2022-12-05T01:57:12.788Z,20.90
2022-12-05T01:59:47.895Z,20.90
2022-12-05T02:02:15.379Z,20.80
2022-12-05T02:05:08.579Z,20.80
2022-12-05T02:07:39.904Z,20.80
2022-12-05T02:10:11.275Z,20.80
2022-12-05T02:12:39.256Z,20.70
2022-12-05T02:15:46.244Z,20.70
2022-12-05T02:19:02.563Z,20.80
2022-12-05T02:21:46.998Z,20.70
2022-12-05T02:24:55.182Z,20.70
2022-12-05T02:27:52.533Z,20.70
2022-12-05T02:30:23.957Z,20.70
2022-12-05T02:33:23.870Z,20.70
2022-12-05T02:36:18.097Z,20.70
2022-12-05T02:39:06.708Z,20.70
2022-12-05T02:41:45.666Z,20.60
2022-12-05T02:44:34.167Z,20.60
2022-12-05T02:47:01.853Z,20.60
2022-12-05T02:49:35.576Z,20.60
2022-12-05T02:52:08.038Z,20.50
2022-12-05T02:54:42.360Z,20.60
2022-12-05T02:57:17.079Z,20.50
2022-12-05T02:59:44.079Z,20.50
2022-12-05T03:02:34.827Z,20.50
2022-12-05T03:05:57.049Z,20.50
2022-12-05T03:08:31.719Z,20.50
2022-12-05T03:11:02.470Z,20.50
2022-12-05T03:14:00.883Z,20.40
2022-12-05T03:16:43.198Z,20.50
2022-12-05T03:19:21.551Z,20.40
2022-12-05T03:22:01.828Z,20.40
2022-12-05T03:24:30.590Z,20.40
2022-12-05T03:27:49.664Z,20.40
2022-12-05T03:30:25.480Z,20.40
2022-12-05T03:33:02.182Z,20.40
2022-12-05T03:35:55.372Z,20.40
2022-12-05T03:38:54.299Z,20.40
2022-12-05T03:41:38.716Z,20.40
2022-12-05T03:44:37.933Z,21.40
2022-12-05T03:47:20.324Z,20.40
2022-12-05T03:49:58.417Z,20.40
2022-12-05T03:53:18.228Z,20.30
2022-12-05T03:55:39.335Z,20.40
2022-12-05T03:58:27.568Z,20.30
2022-12-05T04:00:57.743Z,20.30
2022-12-05T04:03:51.879Z,20.30
2022-12-05T04:06:36.372Z,20.30
2022-12-05T04:09:12.471Z,20.30
2022-12-05T04:11:51.277Z,20.30
2022-12-05T04:14:39.235Z,20.30
2022-12-05T04:17:32.707Z,20.30
2022-12-05T04:20:38.861Z,20.30
2022-12-05T04:23:09.153Z,20.30
2022-12-05T04:26:07.462Z,20.30
2022-12-05T04:28:59.144Z,20.30
2022-12-05T04:31:34.422Z,20.30
2022-12-05T04:34:07.814Z,20.20
2022-12-05T04:36:59.672Z,20.20
2022-12-05T04:40:13.149Z,20.30
2022-12-05T04:42:45.832Z,20.20
2022-12-05T04:45:19.508Z,20.20
2022-12-05T04:47:54.727Z,20.20
2022-12-05T04:50:24.462Z,20.20
2022-12-05T04:52:56.629Z,20.20
2022-12-05T04:55:26.259Z,20.20
2022-12-05T04:58:09.866Z,20.20
2022-12-05T05:01:07.579Z,20.20
2022-12-05T05:03:50.277Z,20.20
2022-12-05T05:06:17.926Z,20.20
2022-12-05T05:08:57.641Z,20.10
2022-12-05T05:11:31.442Z,20.20
2022-12-05T05:13:58.587Z,20.10
2022-12-05T05:16:32.428Z,20.10
2022-12-05T05:18:59.421Z,20.10
2022-12-05T05:21:31.107Z,20.10
2022-12-05T05:23:58.646Z,20.10
2022-12-05T05:26:27.425Z,20.10
2022-12-05T05:28:57.897Z,20.10
2022-12-05T05:31:26.099Z,20.10
2022-12-05T05:33:57.616Z,20.10
2022-12-05T05:36:30.140Z,20.10
2022-12-05T05:39:03.599Z,20.10
2022-12-05T05:41:35.290Z,20.10
2022-12-05T05:44:04.260Z,20.00
2022-12-05T05:46:34.090Z,20.10
2022-12-05T05:49:07.105Z,20.10
2022-12-05T05:51:34.440Z,20.00
2022-12-05T05:54:01.495Z,20.00
2022-12-05T05:56:31.643Z,20.00
2022-12-05T05:59:02.250Z,20.00
2022-12-05T06:01:30.418Z,20.00
2022-12-05T06:03:58.389Z,20.00
2022-12-05T06:06:26.244Z,20.00
2022-12-05T06:08:55.248Z,20.00
2022-12-05T06:11:27.739Z,20.00
2022-12-05T06:14:02.829Z,20.00
2022-12-05T06:16:31.943Z,20.00
2022-12-05T06:19:02.351Z,20.00
2022-12-05T06:21:29.478Z,20.00
2022-12-05T06:23:56.920Z,20.00
2022-12-05T06:26:24.274Z,20.00
2022-12-05T06:28:54.387Z,20.00
2022-12-05T06:31:24.728Z,20.00
2022-12-05T06:33:51.794Z,20.00
2022-12-05T06:36:22.491Z,20.00
2022-12-05T06:38:49.531Z,20.00
2022-12-05T06:41:21.068Z,20.00
2022-12-05T06:43:48.250Z,19.90
2022-12-05T06:46:18.482Z,20.00
2022-12-05T06:48:45.791Z,20.00
2022-12-05T06:51:17.261Z,20.00
2022-12-05T06:53:45.080Z,20.00
2022-12-05T06:56:16.382Z,20.00
2022-12-05T06:58:46.364Z,20.00
2022-12-05T07:01:39.582Z,20.10
2022-12-05T07:04:24.351Z,20.20
2022-12-05T07:06:54.332Z,20.20
2022-12-05T07:09:46.142Z,20.30
2022-12-05T07:12:16.775Z,20.40
2022-12-05T07:14:49.396Z,20.50
2022-12-05T07:17:21.496Z,20.60
2022-12-05T07:19:50.594Z,20.70
2022-12-05T07:22:21.152Z,20.80
2022-12-05T07:24:51.169Z,20.90
2022-12-05T07:27:23.346Z,21.00
2022-12-05T07:29:54.949Z,21.10
2022-12-05T07:32:22.288Z,21.20
2022-12-05T07:34:54.711Z,21.30
2022-12-05T07:37:22.386Z,21.30
2022-12-05T07:39:49.408Z,21.40
2022-12-05T07:42:16.580Z,21.50
2022-12-05T07:44:43.955Z,21.50
2022-12-05T07:47:15.890Z,21.60
2022-12-05T07:49:42.962Z,21.70
2022-12-05T07:52:10.051Z,21.80
2022-12-05T07:54:37.106Z,21.80
2022-12-05T07:57:04.267Z,22.00
2022-12-05T07:59:32.675Z,21.90
2022-12-05T08:01:59.913Z,21.90
2022-12-05T08:04:27.083Z,22.00
2022-12-05T08:06:54.269Z,22.00
2022-12-05T08:09:21.272Z,22.00
2022-12-05T08:11:52.598Z,22.00
2022-12-05T08:14:20.506Z,22.10
2022-12-05T08:16:47.998Z,22.60
2022-12-05T08:19:17.130Z,22.30
2022-12-05T08:21:44.599Z,22.30
2022-12-05T08:24:15.502Z,22.40
2022-12-05T08:26:48.395Z,22.40
2022-12-05T08:29:16.456Z,22.50
2022-12-05T08:31:50.183Z,22.30
2022-12-05T08:34:22.985Z,22.60
2022-12-05T08:36:50.440Z,22.60
2022-12-05T08:39:20.191Z,23.20
2022-12-05T08:41:48.777Z,22.70
2022-12-05T08:44:18.433Z,22.70
2022-12-05T08:46:50.051Z,22.70
2022-12-05T08:49:18.317Z,23.10
2022-12-05T08:51:45.861Z,22.80
2022-12-05T08:54:16.886Z,22.90
2022-12-05T08:56:43.994Z,22.90
2022-12-05T08:59:11.419Z,23.00
2022-12-05T09:01:39.684Z,23.00
2022-12-05T09:04:08.186Z,23.00
2022-12-05T09:06:36.390Z,23.00
2022-12-05T09:09:11.688Z,23.10
2022-12-05T09:11:46.866Z,23.10
2022-12-05T09:14:18.429Z,23.20
2022-12-05T09:16:50.548Z,23.20
2022-12-05T09:19:24.847Z,23.30
2022-12-05T09:21:52.345Z,23.30
2022-12-05T09:24:20.190Z,23.40
2022-12-05T09:26:50.716Z,23.80
2022-12-05T09:29:18.462Z,23.40
2022-12-05T09:31:53.970Z,23.50
2022-12-05T09:34:20.942Z,23.40
2022-12-05T09:36:55.711Z,23.50
2022-12-05T09:39:31.515Z,23.40
2022-12-05T09:42:13.527Z,23.40
2022-12-05T09:45:23.557Z,23.50
2022-12-05T09:48:07.973Z,23.60
2022-12-05T09:50:59.204Z,23.70
2022-12-05T09:53:42.822Z,23.70
2022-12-05T09:56:09.881Z,23.70
2022-12-05T09:58:52.968Z,23.70
2022-12-05T10:01:45.976Z,23.80
2022-12-05T10:05:00.164Z,23.80
2022-12-05T10:07:52.568Z,23.80
2022-12-05T10:10:59.616Z,23.80
2022-12-05T10:13:29.850Z,23.70
2022-12-05T10:16:04.966Z,23.70
2022-12-05T10:18:48.347Z,23.80
2022-12-05T10:21:26.677Z,23.90
2022-12-05T10:23:58.976Z,23.90
2022-12-05T10:26:38.349Z,23.90
2022-12-05T10:29:33.071Z,24.00
2022-12-05T10:32:36.664Z,24.00
2022-12-05T10:35:23.107Z,24.00
2022-12-05T10:37:58.199Z,24.10
2022-12-05T10:40:42.564Z,24.00
2022-12-05T10:43:19.442Z,24.00
2022-12-05T10:45:48.253Z,24.00
2022-12-05T10:48:19.085Z,24.10
2022-12-05T10:50:50.854Z,24.00
2022-12-05T10:53:38.364Z,24.10
2022-12-05T10:56:55.495Z,24.10
2022-12-05T10:59:26.507Z,24.20
2022-12-05T11:01:59.827Z,24.20
2022-12-05T11:04:48.491Z,24.20
2022-12-05T11:07:48.770Z,24.20
2022-12-05T11:10:35.330Z,24.20
2022-12-05T11:13:18.384Z,24.20
2022-12-05T11:15:53.787Z,24.10
2022-12-05T11:18:28.650Z,24.10
2022-12-05T11:20:57.686Z,24.20
2022-12-05T11:23:30.873Z,24.20
2022-12-05T11:25:59.276Z,24.20
2022-12-05T11:28:37.772Z,24.30
2022-12-05T11:31:28.374Z,24.30
2022-12-05T11:34:23.377Z,24.40
2022-12-05T11:37:24.511Z,24.30
2022-12-05T11:39:55.038Z,24.40
2022-12-05T11:42:59.043Z,24.40
2022-12-05T11:45:52.627Z,24.40
2022-12-05T11:48:31.698Z,24.40
2022-12-05T11:51:15.265Z,24.40
2022-12-05T11:54:48.874Z,24.40
2022-12-05T11:57:52.968Z,24.40
2022-12-05T12:00:33.722Z,24.40
2022-12-05T12:03:54.630Z,24.50
2022-12-05T12:06:59.661Z,24.40
2022-12-05T12:09:43.222Z,24.40
2022-12-05T12:12:30.910Z,24.30
2022-12-05T12:15:12.872Z,24.30
2022-12-05T12:18:29.563Z,24.30
2022-12-05T12:21:38.561Z,24.30
2022-12-05T12:24:17.530Z,24.40
2022-12-05T12:27:27.982Z,24.50
2022-12-05T12:30:17.613Z,24.50
2022-12-05T12:33:09.677Z,24.50
2022-12-05T12:36:02.719Z,24.50
2022-12-05T12:39:02.174Z,24.60
2022-12-05T12:42:00.421Z,24.60
2022-12-05T12:44:53.010Z,24.70
2022-12-05T12:47:36.934Z,24.60
2022-12-05T12:50:25.358Z,24.60
2022-12-05T12:53:32.148Z,24.60
2022-12-05T12:56:38.769Z,24.60
2022-12-05T12:59:27.817Z,24.60
2022-12-05T13:02:28.391Z,24.60
2022-12-05T13:05:07.996Z,24.60
2022-12-05T13:07:59.537Z,24.60
2022-12-05T13:10:47.505Z,24.60
2022-12-05T13:13:26.738Z,24.60
2022-12-05T13:16:00.389Z,24.60
2022-12-05T13:18:27.980Z,24.50
2022-12-05T13:21:03.931Z,24.50
2022-12-05T13:23:38.581Z,24.50
2022-12-05T13:26:12.200Z,24.50
2022-12-05T13:28:55.979Z,24.50
2022-12-05T13:31:48.285Z,24.50
2022-12-05T13:34:29.365Z,24.50
2022-12-05T13:37:20.056Z,24.50
2022-12-05T13:40:13.690Z,24.50
2022-12-05T13:42:41.954Z,24.50
2022-12-05T13:45:20.730Z,24.40
2022-12-05T13:47:59.925Z,24.30
2022-12-05T13:51:01.319Z,24.30
2022-12-05T13:53:47.479Z,24.40
2022-12-05T13:56:20.616Z,24.50
2022-12-05T13:58:56.969Z,24.50
2022-12-05T14:01:27.515Z,24.60
2022-12-05T14:03:59.660Z,24.60
2022-12-05T14:06:58.702Z,24.60
2022-12-05T14:09:52.863Z,24.70
2022-12-05T14:12:19.803Z,24.60
2022-12-05T14:15:01.873Z,24.70
2022-12-05T14:17:44.331Z,24.70
2022-12-05T14:20:50.740Z,24.70
2022-12-05T14:23:28.933Z,24.70
2022-12-05T14:26:32.911Z,24.70
2022-12-05T14:29:27.343Z,24.70
2022-12-05T14:32:28.498Z,24.70
2022-12-05T14:35:15.424Z,24.70
2022-12-05T14:37:54.288Z,24.60
2022-12-05T14:40:44.539Z,24.60
2022-12-05T14:43:35.066Z,24.60
2022-12-05T14:46:16.577Z,24.60
2022-12-05T14:48:54.427Z,24.50
2022-12-05T14:51:34.769Z,24.50
2022-12-05T14:54:25.158Z,24.50
2022-12-05T14:57:05.546Z,24.40
2022-12-05T15:00:09.100Z,24.40
2022-12-05T15:02:46.998Z,24.40
2022-12-05T15:05:34.433Z,24.40
2022-12-05T15:08:06.059Z,24.40
2022-12-05T15:10:44.515Z,24.30
2022-12-05T15:13:24.391Z,24.40
2022-12-05T15:16:19.586Z,24.40
2022-12-05T15:18:52.207Z,24.40
2022-12-05T15:21:42.383Z,24.40
2022-12-05T15:24:18.932Z,24.40
2022-12-05T15:26:57.335Z,24.40
2022-12-05T15:29:30.378Z,24.40
2022-12-05T15:32:11.249Z,24.40
2022-12-05T15:35:05.189Z,24.40
2022-12-05T15:37:54.016Z,24.50
2022-12-05T15:40:26.275Z,24.50
2022-12-05T15:42:56.645Z,24.50
2022-12-05T15:45:28.925Z,24.50
2022-12-05T15:48:07.777Z,24.50
2022-12-05T15:50:44.098Z,24.50
2022-12-05T15:53:29.739Z,24.50
2022-12-05T15:56:06.517Z,24.50
2022-12-05T15:59:02.629Z,24.50
2022-12-05T16:01:29.985Z,24.60
2022-12-05T16:04:24.886Z,24.60
2022-12-05T16:06:57.959Z,24.60
2022-12-05T16:09:31.267Z,24.40
2022-12-05T16:12:05.971Z,24.50
2022-12-05T16:17:29.474Z,24.50
2022-12-05T16:20:34.544Z,24.60
2022-12-05T16:23:30.364Z,24.70
2022-12-05T16:26:21.023Z,24.70
2022-12-05T16:29:02.268Z,24.70
2022-12-05T16:31:31.316Z,24.70
2022-12-05T16:34:16.027Z,24.70
2022-12-05T16:36:54.745Z,24.70
2022-12-05T16:39:26.406Z,24.70
2022-12-05T16:41:54.253Z,24.60
2022-12-05T16:44:27.365Z,24.70
2022-12-05T16:46:56.745Z,24.60
2022-12-05T16:49:44.348Z,24.60
2022-12-05T16:52:14.800Z,24.60
2022-12-05T16:54:46.081Z,24.60
2022-12-05T16:57:16.135Z,24.60
2022-12-05T16:59:45.475Z,24.60
2022-12-05T17:02:17.647Z,24.50
2022-12-05T17:04:46.831Z,24.50
2022-12-05T17:07:16.432Z,24.40
2022-12-05T17:09:43.367Z,24.40
2022-12-05T17:12:24.144Z,24.40
2022-12-05T17:14:51.309Z,24.50
2022-12-05T17:17:18.989Z,24.50
2022-12-05T17:19:46.269Z,24.50
2022-12-05T17:22:15.838Z,24.50
2022-12-05T17:24:43.134Z,24.40
2022-12-05T17:27:12.329Z,24.40
2022-12-05T17:29:39.264Z,24.40
2022-12-05T17:32:06.397Z,24.40
2022-12-05T17:34:33.318Z,24.40
2022-12-05T17:37:00.323Z,24.30
2022-12-05T17:39:28.785Z,24.30
2022-12-05T17:41:56.321Z,24.20
2022-12-05T17:44:23.689Z,24.20
2022-12-05T17:46:50.704Z,24.10
2022-12-05T17:49:18.421Z,24.10
2022-12-05T17:52:19.868Z,24.10
2022-12-05T17:54:33.181Z,24.00
2022-12-05T17:57:00.270Z,24.00
2022-12-05T17:59:27.463Z,23.90
2022-12-05T18:01:54.394Z,23.90
2022-12-05T18:04:23.585Z,23.80
2022-12-05T18:06:51.620Z,23.70
2022-12-05T18:09:18.665Z,23.70
2022-12-05T18:11:45.833Z,23.60
2022-12-05T18:14:12.844Z,23.60
2022-12-05T18:16:42.082Z,23.50
2022-12-05T18:19:09.279Z,23.40
2022-12-05T18:21:36.547Z,23.40
2022-12-05T18:24:03.814Z,23.30
2022-12-05T18:26:31.049Z,23.20
2022-12-05T18:29:02.506Z,23.20
2022-12-05T18:31:30.983Z,23.10
2022-12-05T18:33:58.022Z,23.10
2022-12-05T18:36:25.010Z,23.00
2022-12-05T18:38:57.767Z,22.90
2022-12-05T18:41:28.950Z,22.80
2022-12-05T18:43:57.012Z,22.80
2022-12-05T18:46:24.854Z,22.80
2022-12-05T18:48:51.962Z,22.70
2022-12-05T18:51:22.821Z,22.60
2022-12-05T18:53:52.834Z,22.70
2022-12-05T18:56:25.281Z,22.60
2022-12-05T18:58:54.183Z,22.50
2022-12-05T19:01:21.290Z,22.50
2022-12-05T19:03:48.395Z,22.40
2022-12-05T19:06:23.439Z,22.40
2022-12-05T19:08:55.239Z,22.40
2022-12-05T19:11:24.276Z,22.30
2022-12-05T19:13:59.655Z,22.30
2022-12-05T19:16:28.836Z,22.30
2022-12-05T19:19:00.278Z,22.20
2022-12-05T19:21:31.430Z,22.20
2022-12-05T19:23:58.713Z,22.20
2022-12-05T19:26:26.760Z,22.10
2022-12-05T19:28:54.211Z,22.10
2022-12-05T19:31:25.631Z,22.10
2022-12-05T19:33:56.570Z,22.10
2022-12-05T19:36:36.352Z,22.00
2022-12-05T19:39:15.060Z,22.00
2022-12-05T19:41:42.632Z,22.00
2022-12-05T19:44:09.937Z,21.90
2022-12-05T19:46:37.081Z,21.90
2022-12-05T19:49:08.492Z,21.90
2022-12-05T19:51:36.177Z,21.80
2022-12-05T19:54:06.593Z,21.90
2022-12-05T19:56:35.933Z,21.80
2022-12-05T19:59:04.907Z,21.80
2022-12-05T20:01:35.867Z,21.80
2022-12-05T20:04:10.035Z,21.80
2022-12-05T20:06:41.497Z,21.80
2022-12-05T20:09:11.365Z,21.80
2022-12-05T20:11:47.097Z,21.70
2022-12-05T20:14:18.576Z,21.70
2022-12-05T20:16:45.785Z,21.70
2022-12-05T20:19:13.155Z,21.70
2022-12-05T20:21:40.330Z,21.70
2022-12-05T20:24:08.680Z,21.60
2022-12-05T20:26:42.966Z,21.60
2022-12-05T20:29:10.828Z,21.60
2022-12-05T20:31:41.458Z,21.60
2022-12-05T20:34:13.835Z,21.50
2022-12-05T20:36:42.537Z,21.50
2022-12-05T20:39:15.299Z,21.50
2022-12-05T20:41:43.188Z,21.50
2022-12-05T20:44:14.361Z,21.50
2022-12-05T20:46:41.816Z,21.50
2022-12-05T20:49:09.215Z,21.50
2022-12-05T20:51:36.236Z,21.40
2022-12-05T20:54:05.536Z,21.40
2022-12-05T20:56:34.296Z,21.40
2022-12-05T20:59:04.853Z,21.40
2022-12-05T21:01:35.202Z,21.40
2022-12-05T21:04:05.301Z,21.40
2022-12-05T21:06:38.880Z,21.40
2022-12-05T21:09:15.365Z,21.30
2022-12-05T21:11:43.085Z,21.40
2022-12-05T21:14:10.748Z,21.30
2022-12-05T21:17:08.696Z,21.30
2022-12-05T21:19:35.580Z,21.30
2022-12-05T21:22:02.519Z,21.30
2022-12-05T21:24:29.661Z,21.30
2022-12-05T21:26:56.745Z,21.30
2022-12-05T21:29:23.612Z,21.30
2022-12-05T21:31:51.821Z,21.30
2022-12-05T21:34:21.211Z,21.30
2022-12-05T21:36:48.741Z,21.20
2022-12-05T21:39:16.420Z,21.20
2022-12-05T21:41:43.484Z,21.20
2022-12-05T21:44:10.499Z,21.20
2022-12-05T21:46:37.523Z,21.20
2022-12-05T21:49:04.568Z,21.20
2022-12-05T21:51:31.464Z,21.20
2022-12-05T21:53:58.318Z,21.20
2022-12-05T21:56:25.589Z,21.10
2022-12-05T21:58:53.284Z,21.10
2022-12-05T22:01:28.319Z,21.10
2022-12-05T22:04:01.569Z,21.10
2022-12-05T22:06:34.273Z,21.10
2022-12-05T22:09:02.132Z,21.10
2022-12-05T22:11:29.345Z,21.10
2022-12-05T22:13:56.635Z,21.10
2022-12-05T22:16:30.653Z,21.00
2022-12-05T22:18:59.755Z,21.00
2022-12-05T22:21:26.783Z,21.00
2022-12-05T22:23:53.824Z,21.00
2022-12-05T22:26:24.698Z,21.00
2022-12-05T22:28:56.459Z,21.00
2022-12-05T22:31:24.634Z,21.00
2022-12-05T22:33:52.220Z,21.00
2022-12-05T22:36:23.310Z,21.00
2022-12-05T22:38:50.375Z,21.00
2022-12-05T22:41:23.804Z,21.00
2022-12-05T22:43:59.081Z,21.00
2022-12-05T22:46:28.428Z,20.90
2022-12-05T22:48:55.540Z,21.00
2022-12-05T22:51:23.568Z,20.90
2022-12-05T22:53:52.487Z,20.90
2022-12-05T22:56:21.413Z,20.90
2022-12-05T22:58:48.815Z,20.90
2022-12-05T23:01:32.999Z,20.60
2022-12-05T23:04:10.794Z,20.90
2022-12-05T23:06:39.265Z,20.90
2022-12-05T23:09:09.597Z,20.90
2022-12-05T23:11:37.065Z,20.80
2022-12-05T23:14:05.936Z,20.80
2022-12-05T23:16:34.158Z,20.80
2022-12-05T23:19:04.881Z,20.80
2022-12-05T23:21:40.232Z,20.80
2022-12-05T23:24:10.980Z,20.80
2022-12-05T23:26:42.517Z,20.80
2022-12-05T23:29:12.006Z,20.80
2022-12-05T23:31:40.139Z,20.80
2022-12-05T23:34:07.703Z,20.80
2022-12-05T23:36:35.698Z,20.80
2022-12-05T23:39:02.815Z,20.80
2022-12-05T23:41:29.965Z,20.70
2022-12-05T23:43:56.994Z,20.70
2022-12-05T23:46:26.855Z,20.70
2022-12-05T23:48:56.986Z,20.70
2022-12-05T23:51:28.202Z,20.70
2022-12-05T23:53:59.353Z,20.70
2022-12-05T23:56:30.596Z,20.70
2022-12-05T23:58:58.622Z,20.70
